Decoded Metar for SCVM ( in ) (IATA:) | Meteo·Mobile Aviation Weather
aviador You're here:

SCVM Decoded Metar

in
Report Time2018-08-20 01:00:00
UTC Time2018-08-20 01:25:19
Flight Rules vfr VFR
WindCalm
Visibility9999 m
Phenomena:N/A
Clouds:N/A
Expected CloudBase > 800 ft AGL from Temp-Dew spread
CeilingNone
Temp08°C
Dew Point06°C (87% RH)
AAT7.1°C
QNH1016 hPa
Raw Report
METAR SCVM 200100Z 00000KT CAVOK 08/06 Q1016=

Extra information for SCVM:More info

Social comments